sensor_id;sensor_type;location;lat;lon;timestamp;temperature;humidity
52058;DHT22;38063;53.210;6.504;2022-12-07T00:01:24;4.10;99.90
52058;DHT22;38063;53.210;6.504;2022-12-07T00:03:59;4.10;99.90
52058;DHT22;38063;53.210;6.504;2022-12-07T00:06:51;4.10;99.90
52058;DHT22;38063;53.210;6.504;2022-12-07T00:09:18;4.10;99.90
52058;DHT22;38063;53.210;6.504;2022-12-07T00:11:49;4.10;99.90
52058;DHT22;38063;53.210;6.504;2022-12-07T00:14:15;5.00;99.90
52058;DHT22;38063;53.210;6.504;2022-12-07T00:16:42;4.00;99.90
52058;DHT22;38063;53.210;6.504;2022-12-07T00:19:10;4.00;99.90
52058;DHT22;38063;53.210;6.504;2022-12-07T00:21:37;3.90;99.90
52058;DHT22;38063;53.210;6.504;2022-12-07T00:24:04;3.90;99.90
52058;DHT22;38063;53.210;6.504;2022-12-07T00:26:32;3.90;99.90
52058;DHT22;38063;53.210;6.504;2022-12-07T00:29:00;3.80;99.90
52058;DHT22;38063;53.210;6.504;2022-12-07T00:31:29;4.40;99.90
52058;DHT22;38063;53.210;6.504;2022-12-07T00:33:56;3.70;99.90
52058;DHT22;38063;53.210;6.504;2022-12-07T00:36:23;3.70;99.90
52058;DHT22;38063;53.210;6.504;2022-12-07T00:38:49;3.70;99.90
52058;DHT22;38063;53.210;6.504;2022-12-07T00:41:19;3.70;99.90
52058;DHT22;38063;53.210;6.504;2022-12-07T00:43:47;3.70;99.90
52058;DHT22;38063;53.210;6.504;2022-12-07T00:46:13;4.10;99.90
52058;DHT22;38063;53.210;6.504;2022-12-07T00:48:40;3.80;99.90
52058;DHT22;38063;53.210;6.504;2022-12-07T00:51:06;3.90;99.90
52058;DHT22;38063;53.210;6.504;2022-12-07T00:53:36;3.90;99.90
52058;DHT22;38063;53.210;6.504;2022-12-07T00:56:25;4.00;99.90
52058;DHT22;38063;53.210;6.504;2022-12-07T00:58:53;4.10;99.90
52058;DHT22;38063;53.210;6.504;2022-12-07T01:01:18;4.20;99.90
52058;DHT22;38063;53.210;6.504;2022-12-07T01:03:44;4.20;99.90
52058;DHT22;38063;53.210;6.504;2022-12-07T01:06:14;4.50;99.90
52058;DHT22;38063;53.210;6.504;2022-12-07T01:08:40;4.20;99.90
52058;DHT22;38063;53.210;6.504;2022-12-07T01:11:07;4.20;99.90
52058;DHT22;38063;53.210;6.504;2022-12-07T01:13:35;4.20;99.90
52058;DHT22;38063;53.210;6.504;2022-12-07T01:16:04;4.20;99.90
52058;DHT22;38063;53.210;6.504;2022-12-07T01:18:32;4.30;99.90
52058;DHT22;38063;53.210;6.504;2022-12-07T01:21:05;4.30;99.90
52058;DHT22;38063;53.210;6.504;2022-12-07T01:23:32;4.40;99.90
52058;DHT22;38063;53.210;6.504;2022-12-07T01:26:00;4.40;99.90
52058;DHT22;38063;53.210;6.504;2022-12-07T01:28:26;4.40;99.90
52058;DHT22;38063;53.210;6.504;2022-12-07T01:30:59;4.40;99.90
52058;DHT22;38063;53.210;6.504;2022-12-07T01:33:31;4.40;99.90
52058;DHT22;38063;53.210;6.504;2022-12-07T01:38:30;4.30;99.90
52058;DHT22;38063;53.210;6.504;2022-12-07T01:40:57;4.30;99.90
52058;DHT22;38063;53.210;6.504;2022-12-07T01:43:26;4.30;99.90
52058;DHT22;38063;53.210;6.504;2022-12-07T01:45:52;4.20;99.90
52058;DHT22;38063;53.210;6.504;2022-12-07T01:48:22;4.20;99.90
52058;DHT22;38063;53.210;6.504;2022-12-07T01:50:50;4.10;99.90
52058;DHT22;38063;53.210;6.504;2022-12-07T01:53:18;4.20;99.90
52058;DHT22;38063;53.210;6.504;2022-12-07T01:55:46;4.10;99.90
52058;DHT22;38063;53.210;6.504;2022-12-07T01:58:13;4.10;99.90
52058;DHT22;38063;53.210;6.504;2022-12-07T02:00:40;4.10;99.90
52058;DHT22;38063;53.210;6.504;2022-12-07T02:03:29;4.00;99.90
52058;DHT22;38063;53.210;6.504;2022-12-07T02:05:57;4.10;99.90
52058;DHT22;38063;53.210;6.504;2022-12-07T02:08:24;4.00;99.90
52058;DHT22;38063;53.210;6.504;2022-12-07T02:10:50;4.00;99.90
52058;DHT22;38063;53.210;6.504;2022-12-07T02:13:21;4.00;99.90
52058;DHT22;38063;53.210;6.504;2022-12-07T02:30:08;3.80;99.90
52058;DHT22;38063;53.210;6.504;2022-12-07T02:32:40;3.80;99.90
52058;DHT22;38063;53.210;6.504;2022-12-07T02:35:55;3.80;99.90
52058;DHT22;38063;53.210;6.504;2022-12-07T02:40:40;4.00;99.90
52058;DHT22;38063;53.210;6.504;2022-12-07T02:43:57;4.20;99.90
52058;DHT22;38063;53.210;6.504;2022-12-07T02:46:13;4.20;99.90
52058;DHT22;38063;53.210;6.504;2022-12-07T02:48:41;4.20;99.90
52058;DHT22;38063;53.210;6.504;2022-12-07T02:51:08;4.30;99.90
52058;DHT22;38063;53.210;6.504;2022-12-07T02:53:35;4.30;99.90
52058;DHT22;38063;53.210;6.504;2022-12-07T03:04:33;4.40;99.90
52058;DHT22;38063;53.210;6.504;2022-12-07T03:12:25;4.40;99.90
52058;DHT22;38063;53.210;6.504;2022-12-07T03:15:22;4.50;99.90
52058;DHT22;38063;53.210;6.504;2022-12-07T03:17:51;4.60;99.90
52058;DHT22;38063;53.210;6.504;2022-12-07T03:20:19;4.60;99.90
52058;DHT22;38063;53.210;6.504;2022-12-07T03:22:47;4.60;99.90
52058;DHT22;38063;53.210;6.504;2022-12-07T03:25:15;4.60;99.90
52058;DHT22;38063;53.210;6.504;2022-12-07T03:30:19;4.60;99.90
52058;DHT22;38063;53.210;6.504;2022-12-07T03:33:01;4.50;99.90
52058;DHT22;38063;53.210;6.504;2022-12-07T03:35:30;4.50;99.90
52058;DHT22;38063;53.210;6.504;2022-12-07T03:38:10;4.40;99.90
52058;DHT22;38063;53.210;6.504;2022-12-07T03:40:49;4.40;99.90
52058;DHT22;38063;53.210;6.504;2022-12-07T03:43:18;4.40;99.90
52058;DHT22;38063;53.210;6.504;2022-12-07T03:46:50;4.30;99.90
52058;DHT22;38063;53.210;6.504;2022-12-07T03:48:59;4.30;99.90
52058;DHT22;38063;53.210;6.504;2022-12-07T03:51:45;4.30;99.90
52058;DHT22;38063;53.210;6.504;2022-12-07T03:54:26;4.30;99.90
52058;DHT22;38063;53.210;6.504;2022-12-07T03:56:54;4.20;99.90
52058;DHT22;38063;53.210;6.504;2022-12-07T03:59:21;4.20;99.90
52058;DHT22;38063;53.210;6.504;2022-12-07T04:01:55;4.20;99.90
52058;DHT22;38063;53.210;6.504;2022-12-07T04:04:22;4.50;99.90
52058;DHT22;38063;53.210;6.504;2022-12-07T04:06:48;4.10;99.90
52058;DHT22;38063;53.210;6.504;2022-12-07T04:09:14;4.40;99.90
52058;DHT22;38063;53.210;6.504;2022-12-07T04:11:40;4.10;99.90
52058;DHT22;38063;53.210;6.504;2022-12-07T04:14:06;4.10;99.90
52058;DHT22;38063;53.210;6.504;2022-12-07T04:16:55;4.10;99.90
52058;DHT22;38063;53.210;6.504;2022-12-07T04:19:29;4.10;99.90
52058;DHT22;38063;53.210;6.504;2022-12-07T04:21:57;4.00;99.90
52058;DHT22;38063;53.210;6.504;2022-12-07T04:24:23;4.00;99.90
52058;DHT22;38063;53.210;6.504;2022-12-07T04:26:49;3.90;99.90
52058;DHT22;38063;53.210;6.504;2022-12-07T04:29:15;3.90;99.90
52058;DHT22;38063;53.210;6.504;2022-12-07T04:31:41;3.90;99.90
52058;DHT22;38063;53.210;6.504;2022-12-07T04:34:07;3.70;99.90
52058;DHT22;38063;53.210;6.504;2022-12-07T04:36:33;3.70;99.90
52058;DHT22;38063;53.210;6.504;2022-12-07T04:38:59;3.60;99.90
52058;DHT22;38063;53.210;6.504;2022-12-07T04:41:26;3.60;99.90
52058;DHT22;38063;53.210;6.504;2022-12-07T04:44:01;3.60;99.90
52058;DHT22;38063;53.210;6.504;2022-12-07T04:46:28;3.70;99.90
52058;DHT22;38063;53.210;6.504;2022-12-07T04:48:54;3.70;99.90
52058;DHT22;38063;53.210;6.504;2022-12-07T04:51:26;3.80;99.90
52058;DHT22;38063;53.210;6.504;2022-12-07T04:53:53;3.70;99.90
52058;DHT22;38063;53.210;6.504;2022-12-07T04:56:18;3.70;99.90
52058;DHT22;38063;53.210;6.504;2022-12-07T04:58:46;3.70;99.90
52058;DHT22;38063;53.210;6.504;2022-12-07T05:01:12;3.60;99.90
52058;DHT22;38063;53.210;6.504;2022-12-07T05:03:39;3.60;99.90
52058;DHT22;38063;53.210;6.504;2022-12-07T05:06:05;3.50;99.90
52058;DHT22;38063;53.210;6.504;2022-12-07T05:08:32;3.40;99.90
52058;DHT22;38063;53.210;6.504;2022-12-07T05:10:58;3.30;99.90
52058;DHT22;38063;53.210;6.504;2022-12-07T05:13:24;3.30;99.90
52058;DHT22;38063;53.210;6.504;2022-12-07T05:15:49;3.30;99.90
52058;DHT22;38063;53.210;6.504;2022-12-07T05:18:15;3.20;99.90
52058;DHT22;38063;53.210;6.504;2022-12-07T05:20:42;3.20;99.90
52058;DHT22;38063;53.210;6.504;2022-12-07T05:23:08;3.20;99.90
52058;DHT22;38063;53.210;6.504;2022-12-07T05:25:34;3.10;99.90
52058;DHT22;38063;53.210;6.504;2022-12-07T05:27:59;3.10;99.90
52058;DHT22;38063;53.210;6.504;2022-12-07T05:30:27;3.10;99.90
52058;DHT22;38063;53.210;6.504;2022-12-07T05:32:53;3.10;99.90
52058;DHT22;38063;53.210;6.504;2022-12-07T05:35:18;3.00;99.90
52058;DHT22;38063;53.210;6.504;2022-12-07T05:37:44;3.00;99.90
52058;DHT22;38063;53.210;6.504;2022-12-07T05:40:12;3.00;99.90
52058;DHT22;38063;53.210;6.504;2022-12-07T05:42:38;3.00;99.90
52058;DHT22;38063;53.210;6.504;2022-12-07T05:45:04;2.90;99.90
52058;DHT22;38063;53.210;6.504;2022-12-07T05:47:30;2.90;99.90
52058;DHT22;38063;53.210;6.504;2022-12-07T05:49:55;2.90;99.90
52058;DHT22;38063;53.210;6.504;2022-12-07T05:52:21;2.90;99.90
52058;DHT22;38063;53.210;6.504;2022-12-07T05:54:47;2.90;99.90
52058;DHT22;38063;53.210;6.504;2022-12-07T05:57:12;2.80;99.90
52058;DHT22;38063;53.210;6.504;2022-12-07T05:59:38;2.80;99.90
52058;DHT22;38063;53.210;6.504;2022-12-07T06:04:33;2.80;99.90
52058;DHT22;38063;53.210;6.504;2022-12-07T06:06:59;2.70;99.90
52058;DHT22;38063;53.210;6.504;2022-12-07T06:09:27;2.70;99.90
52058;DHT22;38063;53.210;6.504;2022-12-07T06:11:53;2.80;99.90
52058;DHT22;38063;53.210;6.504;2022-12-07T06:14:38;2.90;99.90
52058;DHT22;38063;53.210;6.504;2022-12-07T06:17:03;3.00;99.90
52058;DHT22;38063;53.210;6.504;2022-12-07T06:19:29;3.10;99.90
52058;DHT22;38063;53.210;6.504;2022-12-07T06:21:55;3.20;99.90
52058;DHT22;38063;53.210;6.504;2022-12-07T06:24:21;3.20;99.90
52058;DHT22;38063;53.210;6.504;2022-12-07T06:26:47;3.30;99.90
52058;DHT22;38063;53.210;6.504;2022-12-07T06:29:13;3.30;99.90
52058;DHT22;38063;53.210;6.504;2022-12-07T06:31:39;3.30;99.90
52058;DHT22;38063;53.210;6.504;2022-12-07T06:34:07;3.20;99.90
52058;DHT22;38063;53.210;6.504;2022-12-07T06:36:34;3.10;99.90
52058;DHT22;38063;53.210;6.504;2022-12-07T06:39:00;3.10;99.90
52058;DHT22;38063;53.210;6.504;2022-12-07T06:41:26;3.00;99.90
52058;DHT22;38063;53.210;6.504;2022-12-07T06:43:51;3.00;99.90
52058;DHT22;38063;53.210;6.504;2022-12-07T06:46:17;2.90;99.90
52058;DHT22;38063;53.210;6.504;2022-12-07T06:48:43;2.90;99.90
52058;DHT22;38063;53.210;6.504;2022-12-07T06:51:09;2.90;99.90
52058;DHT22;38063;53.210;6.504;2022-12-07T06:53:36;2.90;99.90
52058;DHT22;38063;53.210;6.504;2022-12-07T06:56:02;2.80;99.90
52058;DHT22;38063;53.210;6.504;2022-12-07T06:58:28;2.80;99.90
52058;DHT22;38063;53.210;6.504;2022-12-07T07:00:54;2.80;99.90
52058;DHT22;38063;53.210;6.504;2022-12-07T07:03:19;2.70;99.90
52058;DHT22;38063;53.210;6.504;2022-12-07T07:05:45;2.70;99.90
52058;DHT22;38063;53.210;6.504;2022-12-07T07:08:11;2.80;99.90
52058;DHT22;38063;53.210;6.504;2022-12-07T07:10:37;2.80;99.90
52058;DHT22;38063;53.210;6.504;2022-12-07T07:13:03;2.90;99.90
52058;DHT22;38063;53.210;6.504;2022-12-07T07:15:29;2.90;99.90
52058;DHT22;38063;53.210;6.504;2022-12-07T07:17:55;3.00;99.90
52058;DHT22;38063;53.210;6.504;2022-12-07T07:20:21;3.00;99.90
52058;DHT22;38063;53.210;6.504;2022-12-07T07:22:46;3.00;99.90
52058;DHT22;38063;53.210;6.504;2022-12-07T07:25:12;3.00;99.90
52058;DHT22;38063;53.210;6.504;2022-12-07T07:27:37;3.00;99.90
52058;DHT22;38063;53.210;6.504;2022-12-07T07:30:04;3.10;99.90
52058;DHT22;38063;53.210;6.504;2022-12-07T07:32:30;3.10;99.90
52058;DHT22;38063;53.210;6.504;2022-12-07T07:34:55;3.00;99.90
52058;DHT22;38063;53.210;6.504;2022-12-07T07:37:21;3.10;99.90
52058;DHT22;38063;53.210;6.504;2022-12-07T07:39:46;3.00;99.90
52058;DHT22;38063;53.210;6.504;2022-12-07T07:42:12;3.00;99.90
52058;DHT22;38063;53.210;6.504;2022-12-07T07:44:38;3.00;99.90
52058;DHT22;38063;53.210;6.504;2022-12-07T07:47:03;2.90;99.90
52058;DHT22;38063;53.210;6.504;2022-12-07T07:49:29;3.00;99.90
52058;DHT22;38063;53.210;6.504;2022-12-07T07:51:55;2.90;99.90
52058;DHT22;38063;53.210;6.504;2022-12-07T07:54:20;2.90;99.90
52058;DHT22;38063;53.210;6.504;2022-12-07T07:56:46;3.00;99.90
52058;DHT22;38063;53.210;6.504;2022-12-07T07:59:11;2.80;99.90
52058;DHT22;38063;53.210;6.504;2022-12-07T08:01:37;2.70;99.90
52058;DHT22;38063;53.210;6.504;2022-12-07T08:04:03;2.70;99.90
52058;DHT22;38063;53.210;6.504;2022-12-07T08:06:28;2.70;99.90
52058;DHT22;38063;53.210;6.504;2022-12-07T08:08:54;2.70;99.90
52058;DHT22;38063;53.210;6.504;2022-12-07T08:11:20;2.70;99.90
52058;DHT22;38063;53.210;6.504;2022-12-07T08:13:46;2.70;99.90
52058;DHT22;38063;53.210;6.504;2022-12-07T08:16:15;2.70;99.90
52058;DHT22;38063;53.210;6.504;2022-12-07T08:18:41;2.60;99.90
52058;DHT22;38063;53.210;6.504;2022-12-07T08:21:11;2.60;99.90
52058;DHT22;38063;53.210;6.504;2022-12-07T08:23:37;2.60;99.90
52058;DHT22;38063;53.210;6.504;2022-12-07T08:26:08;2.60;99.90
52058;DHT22;38063;53.210;6.504;2022-12-07T08:28:34;2.60;99.90
52058;DHT22;38063;53.210;6.504;2022-12-07T08:31:02;2.60;99.90
52058;DHT22;38063;53.210;6.504;2022-12-07T08:33:27;2.60;99.90
52058;DHT22;38063;53.210;6.504;2022-12-07T08:35:53;2.60;99.90
52058;DHT22;38063;53.210;6.504;2022-12-07T08:38:19;2.60;99.90
52058;DHT22;38063;53.210;6.504;2022-12-07T08:40:44;2.70;99.90
52058;DHT22;38063;53.210;6.504;2022-12-07T08:43:10;2.80;99.90
52058;DHT22;38063;53.210;6.504;2022-12-07T08:45:36;2.80;99.90
52058;DHT22;38063;53.210;6.504;2022-12-07T08:48:10;3.00;99.90
52058;DHT22;38063;53.210;6.504;2022-12-07T08:50:37;3.10;99.90
52058;DHT22;38063;53.210;6.504;2022-12-07T08:53:04;3.20;99.90
52058;DHT22;38063;53.210;6.504;2022-12-07T08:55:31;3.20;99.90
52058;DHT22;38063;53.210;6.504;2022-12-07T08:57:58;3.30;99.90
52058;DHT22;38063;53.210;6.504;2022-12-07T09:00:24;3.30;99.90
52058;DHT22;38063;53.210;6.504;2022-12-07T09:02:51;3.40;99.90
52058;DHT22;38063;53.210;6.504;2022-12-07T09:05:17;3.40;99.90
52058;DHT22;38063;53.210;6.504;2022-12-07T09:07:48;3.50;99.90
52058;DHT22;38063;53.210;6.504;2022-12-07T09:10:14;3.60;99.90
52058;DHT22;38063;53.210;6.504;2022-12-07T09:12:40;3.60;99.90
52058;DHT22;38063;53.210;6.504;2022-12-07T09:15:06;3.70;99.90
52058;DHT22;38063;53.210;6.504;2022-12-07T09:17:33;3.80;99.90
52058;DHT22;38063;53.210;6.504;2022-12-07T09:19:59;3.90;99.90
52058;DHT22;38063;53.210;6.504;2022-12-07T09:22:31;4.10;99.90
52058;DHT22;38063;53.210;6.504;2022-12-07T09:24:58;4.20;99.90
52058;DHT22;38063;53.210;6.504;2022-12-07T09:27:24;4.40;99.90
52058;DHT22;38063;53.210;6.504;2022-12-07T09:29:49;4.50;99.90
52058;DHT22;38063;53.210;6.504;2022-12-07T09:32:15;4.60;99.90
52058;DHT22;38063;53.210;6.504;2022-12-07T09:34:41;4.60;99.90
52058;DHT22;38063;53.210;6.504;2022-12-07T09:37:06;4.60;99.90
52058;DHT22;38063;53.210;6.504;2022-12-07T09:39:32;4.60;99.90
52058;DHT22;38063;53.210;6.504;2022-12-07T09:41:59;4.50;99.90
52058;DHT22;38063;53.210;6.504;2022-12-07T09:44:27;4.50;99.90
52058;DHT22;38063;53.210;6.504;2022-12-07T09:46:55;4.40;99.90
52058;DHT22;38063;53.210;6.504;2022-12-07T09:49:24;4.40;99.90
52058;DHT22;38063;53.210;6.504;2022-12-07T09:54:44;4.40;99.90
52058;DHT22;38063;53.210;6.504;2022-12-07T09:57:11;4.40;99.90
52058;DHT22;38063;53.210;6.504;2022-12-07T09:59:38;4.40;99.90
52058;DHT22;38063;53.210;6.504;2022-12-07T10:05:05;4.40;99.90
52058;DHT22;38063;53.210;6.504;2022-12-07T10:07:31;4.40;99.90
52058;DHT22;38063;53.210;6.504;2022-12-07T10:09:57;4.40;99.90
52058;DHT22;38063;53.210;6.504;2022-12-07T10:12:23;4.40;99.90
52058;DHT22;38063;53.210;6.504;2022-12-07T10:15:03;4.40;99.90
52058;DHT22;38063;53.210;6.504;2022-12-07T10:17:36;4.40;99.90
52058;DHT22;38063;53.210;6.504;2022-12-07T10:20:17;4.40;99.90
52058;DHT22;38063;53.210;6.504;2022-12-07T10:22:58;4.40;99.90
52058;DHT22;38063;53.210;6.504;2022-12-07T10:25:33;4.40;99.90
52058;DHT22;38063;53.210;6.504;2022-12-07T10:27:59;4.40;99.90
52058;DHT22;38063;53.210;6.504;2022-12-07T10:30:25;4.40;99.90
52058;DHT22;38063;53.210;6.504;2022-12-07T10:32:51;4.50;99.90
52058;DHT22;38063;53.210;6.504;2022-12-07T10:35:27;4.50;99.90
52058;DHT22;38063;53.210;6.504;2022-12-07T10:37:54;4.60;99.90
52058;DHT22;38063;53.210;6.504;2022-12-07T10:40:33;4.70;99.90
52058;DHT22;38063;53.210;6.504;2022-12-07T10:53:35;5.10;99.90
52058;DHT22;38063;53.210;6.504;2022-12-07T10:59:23;5.20;99.90
52058;DHT22;38063;53.210;6.504;2022-12-07T11:01:57;5.10;99.90
52058;DHT22;38063;53.210;6.504;2022-12-07T11:17:23;4.50;99.90
52058;DHT22;38063;53.210;6.504;2022-12-07T11:25:34;4.70;99.90
52058;DHT22;38063;53.210;6.504;2022-12-07T11:31:23;4.60;99.90
52058;DHT22;38063;53.210;6.504;2022-12-07T11:34:23;4.70;99.90
52058;DHT22;38063;53.210;6.504;2022-12-07T11:36:52;4.70;99.90
52058;DHT22;38063;53.210;6.504;2022-12-07T11:41:50;4.70;99.90
52058;DHT22;38063;53.210;6.504;2022-12-07T11:47:06;4.80;99.90
52058;DHT22;38063;53.210;6.504;2022-12-07T11:49:41;4.80;99.90
52058;DHT22;38063;53.210;6.504;2022-12-07T11:52:58;4.70;99.90
52058;DHT22;38063;53.210;6.504;2022-12-07T11:55:00;4.80;99.90
52058;DHT22;38063;53.210;6.504;2022-12-07T11:57:33;4.80;99.90
52058;DHT22;38063;53.210;6.504;2022-12-07T12:00:04;4.80;99.90
52058;DHT22;38063;53.210;6.504;2022-12-07T12:02:37;4.90;99.90
52058;DHT22;38063;53.210;6.504;2022-12-07T12:05:21;5.00;99.90
52058;DHT22;38063;53.210;6.504;2022-12-07T12:07:56;5.00;99.90
52058;DHT22;38063;53.210;6.504;2022-12-07T12:18:09;5.00;99.90
52058;DHT22;38063;53.210;6.504;2022-12-07T12:23:22;5.10;99.90
52058;DHT22;38063;53.210;6.504;2022-12-07T12:25:57;5.10;99.90
52058;DHT22;38063;53.210;6.504;2022-12-07T12:28:32;5.10;99.90
52058;DHT22;38063;53.210;6.504;2022-12-07T12:31:07;5.10;99.90
52058;DHT22;38063;53.210;6.504;2022-12-07T12:33:35;5.10;99.90
52058;DHT22;38063;53.210;6.504;2022-12-07T12:41:52;5.20;99.90
52058;DHT22;38063;53.210;6.504;2022-12-07T12:46:56;5.30;99.90
52058;DHT22;38063;53.210;6.504;2022-12-07T12:52:45;5.30;99.90
52058;DHT22;38063;53.210;6.504;2022-12-07T12:55:13;5.30;99.90
52058;DHT22;38063;53.210;6.504;2022-12-07T12:57:40;5.20;99.90
52058;DHT22;38063;53.210;6.504;2022-12-07T13:00:16;5.10;99.90
52058;DHT22;38063;53.210;6.504;2022-12-07T13:02:48;4.90;99.90
52058;DHT22;38063;53.210;6.504;2022-12-07T13:05:16;4.80;99.90
52058;DHT22;38063;53.210;6.504;2022-12-07T13:15:48;4.50;99.90
52058;DHT22;38063;53.210;6.504;2022-12-07T13:20:54;4.40;99.90
52058;DHT22;38063;53.210;6.504;2022-12-07T13:26:22;4.30;99.90
52058;DHT22;38063;53.210;6.504;2022-12-07T13:31:56;4.30;99.90
52058;DHT22;38063;53.210;6.504;2022-12-07T13:36:56;4.30;99.90
52058;DHT22;38063;53.210;6.504;2022-12-07T13:39:24;4.20;99.90
52058;DHT22;38063;53.210;6.504;2022-12-07T13:41:53;4.20;99.90
52058;DHT22;38063;53.210;6.504;2022-12-07T13:44:20;4.10;99.90
52058;DHT22;38063;53.210;6.504;2022-12-07T13:47:14;4.00;99.90
52058;DHT22;38063;53.210;6.504;2022-12-07T13:49:53;3.90;99.90
52058;DHT22;38063;53.210;6.504;2022-12-07T13:52:27;3.90;99.90
52058;DHT22;38063;53.210;6.504;2022-12-07T13:55:01;3.80;99.90
52058;DHT22;38063;53.210;6.504;2022-12-07T13:57:28;3.80;99.90
52058;DHT22;38063;53.210;6.504;2022-12-07T13:59:56;3.70;99.90
52058;DHT22;38063;53.210;6.504;2022-12-07T14:04:51;3.70;99.90
52058;DHT22;38063;53.210;6.504;2022-12-07T14:07:27;3.70;99.90
52058;DHT22;38063;53.210;6.504;2022-12-07T14:09:55;3.60;99.90
52058;DHT22;38063;53.210;6.504;2022-12-07T14:12:22;3.60;99.90
52058;DHT22;38063;53.210;6.504;2022-12-07T14:14:48;3.60;99.90
52058;DHT22;38063;53.210;6.504;2022-12-07T14:17:22;3.60;99.90
52058;DHT22;38063;53.210;6.504;2022-12-07T14:19:50;3.60;99.90
52058;DHT22;38063;53.210;6.504;2022-12-07T14:24:50;3.60;99.90
52058;DHT22;38063;53.210;6.504;2022-12-07T14:27:22;3.60;99.90
52058;DHT22;38063;53.210;6.504;2022-12-07T14:29:48;3.60;99.90
52058;DHT22;38063;53.210;6.504;2022-12-07T14:32:20;3.50;99.90
52058;DHT22;38063;53.210;6.504;2022-12-07T14:34:55;3.50;99.90
52058;DHT22;38063;53.210;6.504;2022-12-07T14:37:22;3.50;99.90
52058;DHT22;38063;53.210;6.504;2022-12-07T14:39:47;3.60;99.90
52058;DHT22;38063;53.210;6.504;2022-12-07T14:42:13;3.60;99.90
52058;DHT22;38063;53.210;6.504;2022-12-07T14:44:39;3.60;99.90
52058;DHT22;38063;53.210;6.504;2022-12-07T14:47:04;3.60;99.90
52058;DHT22;38063;53.210;6.504;2022-12-07T14:49:30;3.60;99.90
52058;DHT22;38063;53.210;6.504;2022-12-07T14:51:55;3.60;99.90
52058;DHT22;38063;53.210;6.504;2022-12-07T14:54:25;3.60;99.90
52058;DHT22;38063;53.210;6.504;2022-12-07T14:56:51;3.60;99.90
52058;DHT22;38063;53.210;6.504;2022-12-07T14:59:17;3.50;99.90
52058;DHT22;38063;53.210;6.504;2022-12-07T15:01:44;3.50;99.90
52058;DHT22;38063;53.210;6.504;2022-12-07T15:04:10;3.50;99.90
52058;DHT22;38063;53.210;6.504;2022-12-07T15:06:36;3.50;99.90
52058;DHT22;38063;53.210;6.504;2022-12-07T15:09:02;3.40;99.90
52058;DHT22;38063;53.210;6.504;2022-12-07T15:11:28;3.40;99.90
52058;DHT22;38063;53.210;6.504;2022-12-07T15:13:54;3.30;99.90
52058;DHT22;38063;53.210;6.504;2022-12-07T15:16:38;3.30;99.90
52058;DHT22;38063;53.210;6.504;2022-12-07T15:19:05;3.20;99.90
52058;DHT22;38063;53.210;6.504;2022-12-07T15:21:31;3.20;99.90
52058;DHT22;38063;53.210;6.504;2022-12-07T15:23:57;3.10;99.90
52058;DHT22;38063;53.210;6.504;2022-12-07T15:26:22;3.10;99.90
52058;DHT22;38063;53.210;6.504;2022-12-07T15:28:48;3.00;99.90
52058;DHT22;38063;53.210;6.504;2022-12-07T15:31:15;3.00;99.90
52058;DHT22;38063;53.210;6.504;2022-12-07T15:33:42;3.00;99.90
52058;DHT22;38063;53.210;6.504;2022-12-07T15:36:08;3.00;99.90
52058;DHT22;38063;53.210;6.504;2022-12-07T15:38:40;3.00;99.90
52058;DHT22;38063;53.210;6.504;2022-12-07T15:41:06;2.90;99.90
52058;DHT22;38063;53.210;6.504;2022-12-07T15:43:31;2.90;99.90
52058;DHT22;38063;53.210;6.504;2022-12-07T15:46:16;3.00;99.90
52058;DHT22;38063;53.210;6.504;2022-12-07T15:48:41;3.00;99.90
52058;DHT22;38063;53.210;6.504;2022-12-07T15:51:08;3.10;99.90
52058;DHT22;38063;53.210;6.504;2022-12-07T15:53:35;2.90;99.90
52058;DHT22;38063;53.210;6.504;2022-12-07T15:56:01;2.80;99.90
52058;DHT22;38063;53.210;6.504;2022-12-07T15:58:31;2.90;99.90
52058;DHT22;38063;53.210;6.504;2022-12-07T16:00:56;2.90;99.90
52058;DHT22;38063;53.210;6.504;2022-12-07T16:03:22;2.90;99.90
52058;DHT22;38063;53.210;6.504;2022-12-07T16:05:51;2.90;99.90
52058;DHT22;38063;53.210;6.504;2022-12-07T16:08:17;2.90;99.90
52058;DHT22;38063;53.210;6.504;2022-12-07T16:10:45;2.80;99.90
52058;DHT22;38063;53.210;6.504;2022-12-07T16:13:11;2.90;99.90
52058;DHT22;38063;53.210;6.504;2022-12-07T16:15:39;2.90;99.90
52058;DHT22;38063;53.210;6.504;2022-12-07T16:18:05;2.90;99.90
52058;DHT22;38063;53.210;6.504;2022-12-07T16:20:31;2.90;99.90
52058;DHT22;38063;53.210;6.504;2022-12-07T16:22:56;2.90;99.90
52058;DHT22;38063;53.210;6.504;2022-12-07T16:25:22;2.90;99.90
52058;DHT22;38063;53.210;6.504;2022-12-07T16:27:48;2.90;99.90
52058;DHT22;38063;53.210;6.504;2022-12-07T16:30:14;2.90;99.90
52058;DHT22;38063;53.210;6.504;2022-12-07T16:32:41;2.80;99.90
52058;DHT22;38063;53.210;6.504;2022-12-07T16:35:08;2.80;99.90
52058;DHT22;38063;53.210;6.504;2022-12-07T16:37:34;2.80;99.90
52058;DHT22;38063;53.210;6.504;2022-12-07T16:39:59;2.80;99.90
52058;DHT22;38063;53.210;6.504;2022-12-07T16:42:25;2.70;99.90
52058;DHT22;38063;53.210;6.504;2022-12-07T16:44:52;2.70;99.90
52058;DHT22;38063;53.210;6.504;2022-12-07T16:47:17;2.70;99.90
52058;DHT22;38063;53.210;6.504;2022-12-07T16:49:43;2.60;99.90
52058;DHT22;38063;53.210;6.504;2022-12-07T16:52:09;2.60;99.90
52058;DHT22;38063;53.210;6.504;2022-12-07T16:54:35;2.60;99.90
52058;DHT22;38063;53.210;6.504;2022-12-07T16:57:01;2.60;99.90
52058;DHT22;38063;53.210;6.504;2022-12-07T16:59:27;2.60;99.90
52058;DHT22;38063;53.210;6.504;2022-12-07T17:01:52;2.60;99.90
52058;DHT22;38063;53.210;6.504;2022-12-07T17:04:18;2.60;99.90
52058;DHT22;38063;53.210;6.504;2022-12-07T17:06:44;2.60;99.90
52058;DHT22;38063;53.210;6.504;2022-12-07T17:09:09;2.60;99.90
52058;DHT22;38063;53.210;6.504;2022-12-07T17:11:37;2.60;99.90
52058;DHT22;38063;53.210;6.504;2022-12-07T17:14:03;2.60;99.90
52058;DHT22;38063;53.210;6.504;2022-12-07T17:16:47;2.60;99.90
52058;DHT22;38063;53.210;6.504;2022-12-07T17:19:15;2.50;99.90
52058;DHT22;38063;53.210;6.504;2022-12-07T17:21:42;2.50;99.90
52058;DHT22;38063;53.210;6.504;2022-12-07T17:24:10;2.50;99.90
52058;DHT22;38063;53.210;6.504;2022-12-07T17:26:37;2.60;99.90
52058;DHT22;38063;53.210;6.504;2022-12-07T17:29:04;2.50;99.90
52058;DHT22;38063;53.210;6.504;2022-12-07T17:31:30;2.60;99.90
52058;DHT22;38063;53.210;6.504;2022-12-07T17:33:56;2.60;99.90
52058;DHT22;38063;53.210;6.504;2022-12-07T17:36:24;2.60;99.90
52058;DHT22;38063;53.210;6.504;2022-12-07T17:38:50;2.60;99.90
52058;DHT22;38063;53.210;6.504;2022-12-07T17:41:23;2.60;99.90
52058;DHT22;38063;53.210;6.504;2022-12-07T17:44:10;2.70;99.90
52058;DHT22;38063;53.210;6.504;2022-12-07T17:46:36;2.70;99.90
52058;DHT22;38063;53.210;6.504;2022-12-07T17:49:03;2.70;99.90
52058;DHT22;38063;53.210;6.504;2022-12-07T17:51:30;2.70;99.90
52058;DHT22;38063;53.210;6.504;2022-12-07T17:54:14;2.70;99.90
52058;DHT22;38063;53.210;6.504;2022-12-07T17:56:40;2.70;99.90
52058;DHT22;38063;53.210;6.504;2022-12-07T17:59:06;2.60;99.90
52058;DHT22;38063;53.210;6.504;2022-12-07T18:01:32;2.60;99.90
52058;DHT22;38063;53.210;6.504;2022-12-07T18:03:58;2.60;99.90
52058;DHT22;38063;53.210;6.504;2022-12-07T18:06:23;2.60;99.90